createdAt,value
2022-10-17T00:02:35.168Z,101114.28
2022-10-17T00:05:03.634Z,101127.06
2022-10-17T00:07:30.818Z,101123.19
2022-10-17T00:09:58.442Z,101122.19
2022-10-17T00:12:26.052Z,101128.16
2022-10-17T00:14:52.940Z,101118.94
2022-10-17T00:17:20.625Z,101129.50
2022-10-17T00:19:48.060Z,101124.47
2022-10-17T00:22:17.441Z,101122.44
2022-10-17T00:24:44.975Z,101124.06
2022-10-17T00:27:12.503Z,101124.06
2022-10-17T00:29:40.211Z,101120.81
2022-10-17T00:32:07.696Z,101120.66
2022-10-17T00:34:35.280Z,101125.66
2022-10-17T00:37:02.785Z,101125.66
2022-10-17T00:39:30.496Z,101129.28
2022-10-17T00:41:58.824Z,101128.47
2022-10-17T00:44:32.387Z,101129.00
2022-10-17T00:47:04.661Z,101136.44
2022-10-17T00:49:36.958Z,101136.44
2022-10-17T00:52:16.405Z,101133.59
2022-10-17T00:54:45.835Z,101137.16
2022-10-17T00:57:13.222Z,101132.59
2022-10-17T00:59:41.745Z,101132.78
2022-10-17T01:02:10.239Z,101134.47
2022-10-17T01:04:37.766Z,101132.31
2022-10-17T01:07:04.805Z,101126.22
2022-10-17T01:09:31.555Z,101130.81
2022-10-17T01:12:02.414Z,101132.78
2022-10-17T01:14:52.015Z,101128.22
2022-10-17T01:17:29.415Z,101123.59
2022-10-17T01:20:07.204Z,101123.56
2022-10-17T01:22:39.128Z,101117.25
2022-10-17T01:25:07.526Z,101125.88
2022-10-17T01:27:43.266Z,101125.25
2022-10-17T01:30:11.560Z,101122.47
2022-10-17T01:32:40.846Z,101115.75
2022-10-17T01:35:29.703Z,101121.13
2022-10-17T01:38:10.600Z,101140.53
2022-10-17T01:40:41.969Z,101116.53
2022-10-17T01:43:15.339Z,101125.53
2022-10-17T01:45:53.411Z,101121.88
2022-10-17T01:48:23.317Z,101123.13
2022-10-17T01:51:10.275Z,101110.81
2022-10-17T01:53:42.618Z,101113.50
2022-10-17T01:56:11.656Z,101115.69
2022-10-17T01:59:00.170Z,101125.53
2022-10-17T02:01:30.847Z,101119.06
2022-10-17T02:04:02.157Z,101107.88
2022-10-17T02:06:34.043Z,101139.53
2022-10-17T02:09:03.395Z,101121.94
2022-10-17T02:11:30.715Z,101123.91
2022-10-17T02:14:19.000Z,101120.69
2022-10-17T02:16:49.243Z,101119.41
2022-10-17T02:19:27.244Z,101120.78
2022-10-17T02:22:02.730Z,101128.59
2022-10-17T02:24:30.660Z,101113.00
2022-10-17T02:27:11.964Z,101120.50
2022-10-17T02:29:52.846Z,101123.81
2022-10-17T02:32:38.974Z,101126.06
2022-10-17T02:35:10.670Z,101122.75
2022-10-17T02:37:38.862Z,101127.41
2022-10-17T02:40:07.430Z,101135.72
2022-10-17T02:42:39.793Z,101128.09
2022-10-17T02:45:07.470Z,101131.44
2022-10-17T02:47:41.726Z,101129.91
2022-10-17T02:50:09.358Z,101133.69
2022-10-17T02:52:52.393Z,101128.66
2022-10-17T02:55:40.195Z,101129.81
2022-10-17T02:58:24.151Z,101140.56
2022-10-17T03:01:07.618Z,101139.31
2022-10-17T03:03:50.234Z,101136.63
2022-10-17T03:06:33.542Z,101146.41
2022-10-17T03:09:15.594Z,101157.50
2022-10-17T03:11:58.414Z,101148.75
2022-10-17T03:14:40.782Z,101150.69
2022-10-17T03:17:23.119Z,101158.47
2022-10-17T03:20:08.750Z,101159.19
2022-10-17T03:22:51.076Z,101163.78
2022-10-17T03:25:33.540Z,101167.31
2022-10-17T03:28:15.103Z,101155.59
2022-10-17T03:30:57.442Z,101177.75
2022-10-17T03:33:41.830Z,101161.09
2022-10-17T03:36:24.865Z,101154.63
2022-10-17T03:39:06.712Z,101165.38
2022-10-17T03:41:50.955Z,101177.13
2022-10-17T03:44:33.480Z,101160.75
2022-10-17T03:47:15.983Z,101164.38
2022-10-17T03:50:00.038Z,101171.91
2022-10-17T03:52:49.626Z,101177.75
2022-10-17T03:55:32.782Z,101175.28
2022-10-17T03:58:15.578Z,101178.75
2022-10-17T04:00:57.356Z,101179.53
2022-10-17T04:03:41.598Z,101180.22
2022-10-17T04:06:25.066Z,101181.50
2022-10-17T04:09:07.730Z,101189.09
2022-10-17T04:12:13.038Z,101195.09
2022-10-17T04:14:54.886Z,101197.31
2022-10-17T04:17:38.410Z,101198.00
2022-10-17T04:20:23.024Z,101207.16
2022-10-17T04:23:05.593Z,101205.88
2022-10-17T04:25:50.019Z,101204.25
2022-10-17T04:28:32.574Z,101210.13
2022-10-17T04:31:15.630Z,101209.31
2022-10-17T04:34:21.905Z,101208.84
2022-10-17T04:37:08.565Z,101219.59
2022-10-17T04:39:52.372Z,101217.63
2022-10-17T04:42:38.815Z,101219.41
2022-10-17T04:45:24.537Z,101217.34
2022-10-17T04:48:12.806Z,101218.34
2022-10-17T04:50:55.672Z,101222.38
2022-10-17T04:53:48.821Z,101220.63
2022-10-17T04:56:31.737Z,101216.88
2022-10-17T04:59:17.816Z,101217.56
2022-10-17T05:02:08.129Z,101223.56
2022-10-17T05:04:55.584Z,101220.97
2022-10-17T05:07:44.965Z,101230.53
2022-10-17T05:10:44.322Z,101239.97
2022-10-17T05:13:32.636Z,101239.97
2022-10-17T05:16:19.955Z,101246.94
2022-10-17T05:19:05.498Z,101244.31
2022-10-17T05:21:58.261Z,101246.28
2022-10-17T05:24:43.915Z,101249.50
2022-10-17T05:27:39.237Z,101251.13
2022-10-17T05:30:26.562Z,101251.13
2022-10-17T05:33:17.226Z,101250.44
2022-10-17T05:36:04.781Z,101263.91
2022-10-17T05:38:51.657Z,101268.41
2022-10-17T05:41:38.263Z,101269.41
2022-10-17T05:44:24.241Z,101276.63
2022-10-17T05:47:15.168Z,101273.81
2022-10-17T05:50:02.290Z,101278.69
2022-10-17T05:53:00.372Z,101288.28
2022-10-17T05:55:54.998Z,101292.00
2022-10-17T05:58:52.575Z,101294.09
2022-10-17T06:01:54.635Z,101290.13
2022-10-17T06:04:45.418Z,101299.22
2022-10-17T06:07:33.468Z,101302.19
2022-10-17T06:10:20.756Z,101307.19
2022-10-17T06:13:07.545Z,101309.00
2022-10-17T06:15:54.726Z,101309.81
2022-10-17T06:18:40.228Z,101322.97
2022-10-17T06:21:27.571Z,101323.13
2022-10-17T06:24:23.509Z,101323.66
2022-10-17T06:27:15.112Z,101329.97
2022-10-17T06:30:04.970Z,101332.72
2022-10-17T06:32:52.274Z,101337.31
2022-10-17T06:35:39.862Z,101345.06
2022-10-17T06:38:26.656Z,101346.25
2022-10-17T06:41:15.853Z,101346.31
2022-10-17T06:44:10.446Z,101350.63
2022-10-17T06:47:16.642Z,101355.56
2022-10-17T06:50:06.345Z,101359.09
2022-10-17T06:53:02.361Z,101362.59
2022-10-17T06:56:11.837Z,101361.97
2022-10-17T06:59:20.489Z,101363.38
2022-10-17T07:02:19.211Z,101365.66
2022-10-17T07:05:05.332Z,101366.47
2022-10-17T07:07:53.924Z,101371.88
2022-10-17T07:10:40.019Z,101367.25
2022-10-17T07:13:26.877Z,101373.50
2022-10-17T07:16:14.659Z,101375.09
2022-10-17T07:19:01.374Z,101383.09
2022-10-17T07:21:56.473Z,101380.66
2022-10-17T07:28:04.842Z,101383.03
2022-10-17T07:30:53.779Z,101379.53
2022-10-17T07:33:42.230Z,101386.56
2022-10-17T07:36:31.132Z,101384.97
2022-10-17T07:39:26.150Z,101381.25
2022-10-17T07:42:15.400Z,101384.31
2022-10-17T07:45:04.679Z,101384.59
2022-10-17T07:48:15.593Z,101381.69
2022-10-17T07:51:04.658Z,101377.53
2022-10-17T07:53:51.631Z,101382.78
2022-10-17T07:56:37.382Z,101389.88
2022-10-17T07:59:23.736Z,101381.81
2022-10-17T08:02:29.294Z,101386.84
2022-10-17T08:05:15.138Z,101381.34
2022-10-17T08:08:05.423Z,101391.66
2022-10-17T08:10:54.515Z,101391.44
2022-10-17T08:13:42.376Z,101392.91
2022-10-17T08:16:28.181Z,101390.88
2022-10-17T08:19:14.576Z,101402.81
2022-10-17T08:22:05.234Z,101400.28
2022-10-17T08:24:53.511Z,101388.91
2022-10-17T08:27:41.833Z,101390.22
2022-10-17T08:30:31.925Z,101387.69
2022-10-17T08:33:18.015Z,101390.66
2022-10-17T08:36:05.878Z,101384.31
2022-10-17T08:38:53.995Z,101385.78
2022-10-17T08:41:47.398Z,101382.03
2022-10-17T08:44:43.339Z,101390.97
2022-10-17T08:47:34.053Z,101385.34
2022-10-17T08:50:30.086Z,101393.72
2022-10-17T08:53:16.600Z,101393.94
2022-10-17T08:59:35.631Z,101388.03
2022-10-17T09:02:58.460Z,101391.81
2022-10-17T09:05:57.215Z,101389.34
2022-10-17T09:09:04.718Z,101394.34
2022-10-17T09:11:53.826Z,101393.53
2022-10-17T09:14:42.353Z,101394.88
2022-10-17T09:17:40.611Z,101396.19
2022-10-17T09:20:35.538Z,101394.13
2022-10-17T09:23:27.831Z,101398.94
2022-10-17T09:26:17.941Z,101390.91
2022-10-17T09:29:04.189Z,101393.13
2022-10-17T09:34:44.933Z,101397.16
2022-10-17T09:37:33.324Z,101400.59
2022-10-17T09:40:25.201Z,101395.94
2022-10-17T09:43:12.911Z,101391.00
2022-10-17T09:46:04.622Z,101388.53
2022-10-17T09:48:59.038Z,101391.88
2022-10-17T09:51:44.542Z,101393.41
2022-10-17T09:54:52.107Z,101395.16
2022-10-17T09:57:58.164Z,101381.47
2022-10-17T10:00:51.616Z,101388.69
2022-10-17T10:03:39.862Z,101389.38
2022-10-17T10:06:25.099Z,101386.72
2022-10-17T10:09:23.090Z,101392.66
2022-10-17T10:12:18.228Z,101375.00
2022-10-17T10:15:23.681Z,101388.16
2022-10-17T10:18:25.997Z,101377.41
2022-10-17T10:21:27.535Z,101376.28
2022-10-17T10:24:13.952Z,101374.47
2022-10-17T10:27:00.699Z,101382.13
2022-10-17T10:29:51.793Z,101377.31
2022-10-17T10:32:37.720Z,101381.78
2022-10-17T10:35:24.226Z,101375.28
2022-10-17T10:38:11.441Z,101372.38
2022-10-17T10:41:17.884Z,101373.78
2022-10-17T10:44:06.582Z,101369.91
2022-10-17T10:47:27.932Z,101370.94
2022-10-17T10:50:17.414Z,101369.44
2022-10-17T10:53:24.291Z,101358.59
2022-10-17T10:56:21.432Z,101355.00
2022-10-17T10:59:26.703Z,101357.78
2022-10-17T11:02:21.412Z,101345.19
2022-10-17T11:05:10.573Z,101336.34
2022-10-17T11:08:08.002Z,101335.88
2022-10-17T11:11:05.321Z,101338.06
2022-10-17T11:13:59.592Z,101333.69
2022-10-17T11:17:05.022Z,101330.50
2022-10-17T11:19:58.248Z,101337.69
2022-10-17T11:22:48.251Z,101337.84
2022-10-17T11:25:36.620Z,101340.00
2022-10-17T11:28:25.510Z,101334.22
2022-10-17T11:31:13.632Z,101325.84
2022-10-17T11:33:49.805Z,101326.44
2022-10-17T11:36:21.857Z,101328.69
2022-10-17T11:38:52.478Z,101327.09
2022-10-17T11:41:38.564Z,101323.78
2022-10-17T11:44:21.313Z,101330.16
2022-10-17T11:46:51.335Z,101322.56
2022-10-17T11:49:25.092Z,101320.06
2022-10-17T11:52:00.259Z,101320.16
2022-10-17T11:54:30.270Z,101315.22
2022-10-17T11:57:13.852Z,101312.59
2022-10-17T12:00:32.610Z,101318.72
2022-10-17T12:03:13.705Z,101312.19
2022-10-17T12:05:50.046Z,101313.63
2022-10-17T12:08:17.872Z,101310.31
2022-10-17T12:11:00.984Z,101306.94
2022-10-17T12:13:32.959Z,101307.41
2022-10-17T12:16:18.950Z,101316.13
2022-10-17T12:19:03.282Z,101302.94
2022-10-17T12:21:55.445Z,101295.63
2022-10-17T12:24:39.830Z,101290.88
2022-10-17T12:27:23.940Z,101299.41
2022-10-17T12:29:51.461Z,101284.19
2022-10-17T12:32:18.150Z,101296.34
2022-10-17T12:34:57.799Z,101278.31
2022-10-17T12:37:46.498Z,101278.63
2022-10-17T12:40:41.481Z,101280.81
2022-10-17T12:43:18.736Z,101271.28
2022-10-17T12:45:50.339Z,101280.41
2022-10-17T12:48:39.088Z,101274.63
2022-10-17T12:53:57.449Z,101271.81
2022-10-17T12:56:48.732Z,101264.50
2022-10-17T12:59:17.698Z,101280.34
2022-10-17T13:01:48.046Z,101271.59
2022-10-17T13:04:18.437Z,101273.44
2022-10-17T13:06:54.456Z,101267.09
2022-10-17T13:09:25.503Z,101272.69
2022-10-17T13:11:53.174Z,101264.78
2022-10-17T13:14:22.903Z,101268.22
2022-10-17T13:16:57.460Z,101262.38
2022-10-17T13:19:30.598Z,101262.13
2022-10-17T13:21:59.827Z,101261.88
2022-10-17T13:24:38.042Z,101263.25
2022-10-17T13:27:05.897Z,101260.28
2022-10-17T13:29:33.109Z,101258.41
2022-10-17T13:32:02.769Z,101259.22
2022-10-17T13:34:33.344Z,101257.19
2022-10-17T13:37:05.980Z,101264.06
2022-10-17T13:42:36.840Z,101261.41
2022-10-17T13:45:20.643Z,101263.69
2022-10-17T13:47:50.333Z,101256.03
2022-10-17T13:50:44.963Z,101266.59
2022-10-17T13:53:21.567Z,101262.13
2022-10-17T13:56:27.283Z,101269.78
2022-10-17T13:58:52.656Z,101276.38
2022-10-17T14:01:26.053Z,101259.91
2022-10-17T14:04:07.687Z,101266.03
2022-10-17T14:06:51.312Z,101266.53
2022-10-17T14:09:33.987Z,101263.38
2022-10-17T14:12:00.920Z,101271.31
2022-10-17T14:14:46.091Z,101270.78
2022-10-17T14:17:21.679Z,101261.53
2022-10-17T14:20:06.504Z,101272.09
2022-10-17T14:22:41.137Z,101268.03
2022-10-17T14:25:31.328Z,101273.81
2022-10-17T14:28:08.829Z,101274.56
2022-10-17T14:30:56.296Z,101276.41
2022-10-17T14:33:32.095Z,101269.97
2022-10-17T14:36:01.213Z,101274.41
2022-10-17T14:38:28.575Z,101276.25
2022-10-17T14:41:30.263Z,101278.31
2022-10-17T14:43:55.875Z,101277.69
2022-10-17T14:46:25.335Z,101272.88
2022-10-17T14:48:54.934Z,101272.56
2022-10-17T14:51:26.411Z,101268.31
2022-10-17T14:54:14.277Z,101272.25
2022-10-17T14:56:44.932Z,101267.69
2022-10-17T14:59:21.554Z,101267.91
2022-10-17T15:04:56.370Z,101274.59
2022-10-17T15:07:51.032Z,101280.38
2022-10-17T15:10:34.907Z,101279.72
2022-10-17T15:15:58.988Z,101275.66
2022-10-17T15:18:26.608Z,101264.19
2022-10-17T15:21:04.895Z,101268.91
2022-10-17T15:23:39.483Z,101273.06
2022-10-17T15:26:19.924Z,101275.81
2022-10-17T15:28:50.924Z,101275.97
2022-10-17T15:31:20.032Z,101273.25
2022-10-17T15:33:49.863Z,101278.88
2022-10-17T15:36:30.520Z,101277.41
2022-10-17T15:39:08.410Z,101277.53
2022-10-17T15:41:35.236Z,101275.28
2022-10-17T15:44:08.859Z,101279.63
2022-10-17T15:46:40.006Z,101280.34
2022-10-17T15:49:16.550Z,101281.84
2022-10-17T15:51:44.402Z,101288.00
2022-10-17T15:54:15.951Z,101283.44
2022-10-17T15:56:55.152Z,101288.25
2022-10-17T15:59:31.680Z,101292.03
2022-10-17T16:02:05.129Z,101292.16
2022-10-17T16:04:42.844Z,101291.47
2022-10-17T16:07:13.298Z,101292.38
2022-10-17T16:10:11.336Z,101294.91
2022-10-17T16:12:41.532Z,101297.28
2022-10-17T16:15:13.700Z,101304.47
2022-10-17T16:17:47.149Z,101304.53
2022-10-17T16:20:18.033Z,101299.41
2022-10-17T16:22:53.877Z,101305.56
2022-10-17T16:25:25.610Z,101313.69
2022-10-17T16:27:58.887Z,101310.81
2022-10-17T16:30:31.082Z,101311.28
2022-10-17T16:32:59.250Z,101315.41
2022-10-17T16:35:33.281Z,101317.88
2022-10-17T16:38:08.358Z,101316.56
2022-10-17T16:40:41.435Z,101330.41
2022-10-17T16:43:14.444Z,101330.63
2022-10-17T16:45:55.536Z,101326.25
2022-10-17T16:48:29.819Z,101329.78
2022-10-17T16:51:00.327Z,101330.41
2022-10-17T16:53:30.694Z,101323.63
2022-10-17T16:56:01.386Z,101325.53
2022-10-17T16:58:34.253Z,101325.81
2022-10-17T17:01:06.994Z,101324.28
2022-10-17T17:03:59.319Z,101325.59
2022-10-17T17:06:31.754Z,101334.59
2022-10-17T17:08:59.518Z,101334.44
2022-10-17T17:11:53.606Z,101337.31
2022-10-17T17:14:24.255Z,101327.69
2022-10-17T17:17:36.877Z,101329.56
2022-10-17T17:20:11.657Z,101322.97
2022-10-17T17:23:15.724Z,101328.06
2022-10-17T17:25:46.813Z,101329.94
2022-10-17T17:28:20.547Z,101322.94
2022-10-17T17:30:49.150Z,101320.56
2022-10-17T17:33:20.815Z,101323.00
2022-10-17T17:36:01.484Z,101328.09
2022-10-17T17:38:34.296Z,101322.88
2022-10-17T17:41:06.181Z,101333.00
2022-10-17T17:43:33.592Z,101329.22
2022-10-17T17:46:04.973Z,101333.03
2022-10-17T17:48:33.323Z,101330.03
2022-10-17T17:51:29.952Z,101326.00
2022-10-17T17:54:00.470Z,101335.53
2022-10-17T17:56:31.538Z,101335.13
2022-10-17T17:59:01.406Z,101339.41
2022-10-17T18:01:29.494Z,101330.56
2022-10-17T18:04:02.264Z,101330.16
2022-10-17T18:06:39.981Z,101332.22
2022-10-17T18:09:25.668Z,101333.03
2022-10-17T18:11:57.252Z,101339.53
2022-10-17T18:14:31.402Z,101343.22
2022-10-17T18:17:08.488Z,101338.41
2022-10-17T18:19:47.693Z,101342.03
2022-10-17T18:22:46.720Z,101341.66
2022-10-17T18:25:22.686Z,101330.34
2022-10-17T18:27:57.837Z,101341.25
2022-10-17T18:30:34.491Z,101334.63
2022-10-17T18:33:05.049Z,101335.41
2022-10-17T18:36:00.542Z,101335.84
2022-10-17T18:38:33.881Z,101337.63
2022-10-17T18:41:28.110Z,101319.91
2022-10-17T18:44:06.222Z,101329.78
2022-10-17T18:47:32.286Z,101334.81
2022-10-17T18:50:05.552Z,101329.75
2022-10-17T18:52:45.577Z,101318.69
2022-10-17T18:55:22.370Z,101333.56
2022-10-17T18:57:57.410Z,101331.56
2022-10-17T19:00:31.629Z,101336.94
2022-10-17T19:06:26.082Z,101332.31
2022-10-17T19:09:03.409Z,101334.72
2022-10-17T19:11:34.179Z,101343.97
2022-10-17T19:17:33.871Z,101336.66
2022-10-17T19:20:05.366Z,101345.91
2022-10-17T19:22:40.133Z,101346.53
2022-10-17T19:25:27.053Z,101341.06
2022-10-17T19:28:27.273Z,101332.19
2022-10-17T19:31:33.467Z,101341.38
2022-10-17T19:34:03.257Z,101342.59
2022-10-17T19:37:28.862Z,101336.34
2022-10-17T19:42:59.717Z,101342.09
2022-10-17T19:45:34.602Z,101337.25
2022-10-17T19:48:05.546Z,101342.25
2022-10-17T19:50:47.120Z,101336.78
2022-10-17T19:53:15.551Z,101339.81
2022-10-17T19:56:19.372Z,101335.97
2022-10-17T19:59:28.106Z,101337.13
2022-10-17T20:02:53.248Z,101341.34
2022-10-17T20:05:26.024Z,101341.69
2022-10-17T20:11:11.132Z,101338.44
2022-10-17T20:13:39.127Z,101333.97
2022-10-17T20:16:08.640Z,101340.59
2022-10-17T20:18:38.336Z,101339.19
2022-10-17T20:21:11.362Z,101346.22
2022-10-17T20:23:40.813Z,101343.38
2022-10-17T20:29:10.011Z,101340.88
2022-10-17T20:32:06.239Z,101343.69
2022-10-17T20:34:35.713Z,101341.28
2022-10-17T20:37:14.713Z,101341.44
2022-10-17T20:40:35.865Z,101336.41
2022-10-17T20:43:08.389Z,101346.84
2022-10-17T20:45:51.117Z,101345.63
2022-10-17T20:48:41.655Z,101338.78
2022-10-17T20:51:35.908Z,101345.53
2022-10-17T20:54:11.846Z,101341.09
2022-10-17T20:56:56.989Z,101343.03
2022-10-17T20:59:32.374Z,101335.78
2022-10-17T21:02:07.702Z,101345.59
2022-10-17T21:05:08.181Z,101344.59
2022-10-17T21:07:40.538Z,101338.78
2022-10-17T21:10:34.372Z,101343.38
2022-10-17T21:13:41.169Z,101348.13
2022-10-17T21:17:08.168Z,101346.09
2022-10-17T21:20:03.256Z,101347.44
2022-10-17T21:23:08.828Z,101347.63
2022-10-17T21:25:40.813Z,101345.59
2022-10-17T21:28:09.860Z,101343.53
2022-10-17T21:30:48.344Z,101340.28
2022-10-17T21:33:20.504Z,101337.88
2022-10-17T21:35:50.379Z,101337.69
2022-10-17T21:38:22.154Z,101337.28
2022-10-17T21:40:55.370Z,101340.88
2022-10-17T21:43:27.920Z,101334.28
2022-10-17T21:46:25.408Z,101341.19
2022-10-17T21:49:21.085Z,101339.78
2022-10-17T21:52:28.978Z,101336.13
2022-10-17T21:54:58.180Z,101338.91
2022-10-17T21:57:35.857Z,101333.22
2022-10-17T22:00:08.449Z,101326.03
2022-10-17T22:02:48.226Z,101328.41
2022-10-17T22:05:20.407Z,101320.19
2022-10-17T22:07:51.980Z,101332.00
2022-10-17T22:10:29.725Z,101317.97
2022-10-17T22:13:02.194Z,101323.09
2022-10-17T22:16:03.583Z,101332.25
2022-10-17T22:18:37.687Z,101335.06
2022-10-17T22:21:12.324Z,101316.63
2022-10-17T22:23:41.242Z,101326.63
2022-10-17T22:26:10.527Z,101330.03
2022-10-17T22:28:43.265Z,101305.78
2022-10-17T22:31:20.944Z,101325.00
2022-10-17T22:33:51.488Z,101317.81
2022-10-17T22:36:20.225Z,101329.59
2022-10-17T22:38:49.951Z,101319.78
2022-10-17T22:41:18.775Z,101325.34
2022-10-17T22:43:50.846Z,101323.91
2022-10-17T22:46:20.435Z,101318.06
2022-10-17T22:48:58.643Z,101319.00
2022-10-17T22:51:26.692Z,101312.53
2022-10-17T22:53:56.433Z,101313.50
2022-10-17T22:56:24.101Z,101315.84
2022-10-17T22:58:54.218Z,101309.41
2022-10-17T23:01:27.843Z,101312.97
2022-10-17T23:04:51.093Z,101319.72
2022-10-17T23:07:23.504Z,101316.03
2022-10-17T23:09:53.956Z,101315.56
2022-10-17T23:12:25.427Z,101312.34
2022-10-17T23:15:00.222Z,101312.88
2022-10-17T23:17:33.810Z,101315.00
2022-10-17T23:20:01.668Z,101299.22
2022-10-17T23:22:33.303Z,101297.34
2022-10-17T23:25:03.577Z,101299.63
2022-10-17T23:27:58.794Z,101297.41
2022-10-17T23:30:33.561Z,101295.25
2022-10-17T23:33:01.643Z,101299.03
2022-10-17T23:35:30.572Z,101286.38
2022-10-17T23:41:22.539Z,101280.88
2022-10-17T23:43:54.927Z,101282.22
2022-10-17T23:46:32.266Z,101278.63
2022-10-17T23:48:59.857Z,101283.41
2022-10-17T23:51:32.794Z,101281.41
2022-10-17T23:54:10.632Z,101272.81
2022-10-17T23:56:44.691Z,101269.75
2022-10-17T23:59:16.789Z,101279.50
